sensor_id;sensor_type;location;lat;lon;timestamp;temperature;humidity
21563;DHT22;10942;47.894;11.424;2023-03-14T00:02:19;9.70;99.90
21563;DHT22;10942;47.894;11.424;2023-03-14T00:04:45;9.70;99.90
21563;DHT22;10942;47.894;11.424;2023-03-14T00:07:12;9.60;99.90
21563;DHT22;10942;47.894;11.424;2023-03-14T00:09:38;9.50;99.90
21563;DHT22;10942;47.894;11.424;2023-03-14T00:12:04;9.50;99.90
21563;DHT22;10942;47.894;11.424;2023-03-14T00:14:31;9.30;99.90
21563;DHT22;10942;47.894;11.424;2023-03-14T00:16:57;9.30;99.90
21563;DHT22;10942;47.894;11.424;2023-03-14T00:19:22;9.30;99.90
21563;DHT22;10942;47.894;11.424;2023-03-14T00:21:48;9.30;99.90
21563;DHT22;10942;47.894;11.424;2023-03-14T00:24:14;9.30;99.90
21563;DHT22;10942;47.894;11.424;2023-03-14T00:26:39;9.30;99.90
21563;DHT22;10942;47.894;11.424;2023-03-14T00:29:05;9.30;99.90
21563;DHT22;10942;47.894;11.424;2023-03-14T00:31:31;9.30;99.90
21563;DHT22;10942;47.894;11.424;2023-03-14T00:33:57;9.30;99.90
21563;DHT22;10942;47.894;11.424;2023-03-14T00:36:23;9.30;99.90
21563;DHT22;10942;47.894;11.424;2023-03-14T00:38:50;9.30;99.90
21563;DHT22;10942;47.894;11.424;2023-03-14T00:41:22;9.20;99.90
21563;DHT22;10942;47.894;11.424;2023-03-14T00:43:48;9.20;99.90
21563;DHT22;10942;47.894;11.424;2023-03-14T00:46:14;9.30;99.90
21563;DHT22;10942;47.894;11.424;2023-03-14T00:48:44;9.30;99.90
21563;DHT22;10942;47.894;11.424;2023-03-14T00:51:11;9.30;99.90
21563;DHT22;10942;47.894;11.424;2023-03-14T00:53:42;9.30;99.90
21563;DHT22;10942;47.894;11.424;2023-03-14T00:56:10;9.30;99.90
21563;DHT22;10942;47.894;11.424;2023-03-14T00:58:36;9.20;99.90
21563;DHT22;10942;47.894;11.424;2023-03-14T01:01:07;9.20;99.90
21563;DHT22;10942;47.894;11.424;2023-03-14T01:03:33;9.10;99.90
21563;DHT22;10942;47.894;11.424;2023-03-14T01:06:14;9.10;99.90
21563;DHT22;10942;47.894;11.424;2023-03-14T01:08:42;9.20;99.90
21563;DHT22;10942;47.894;11.424;2023-03-14T01:11:10;9.10;99.90
21563;DHT22;10942;47.894;11.424;2023-03-14T01:13:36;9.20;99.90
21563;DHT22;10942;47.894;11.424;2023-03-14T01:16:03;9.20;99.90
21563;DHT22;10942;47.894;11.424;2023-03-14T01:18:31;9.20;99.90
21563;DHT22;10942;47.894;11.424;2023-03-14T01:20:57;9.10;99.90
21563;DHT22;10942;47.894;11.424;2023-03-14T01:23:23;9.10;99.90
21563;DHT22;10942;47.894;11.424;2023-03-14T01:25:48;9.10;99.90
21563;DHT22;10942;47.894;11.424;2023-03-14T01:28:15;9.20;99.90
21563;DHT22;10942;47.894;11.424;2023-03-14T01:30:41;9.10;99.90
21563;DHT22;10942;47.894;11.424;2023-03-14T01:33:07;9.00;99.90
21563;DHT22;10942;47.894;11.424;2023-03-14T01:35:33;9.10;99.90
21563;DHT22;10942;47.894;11.424;2023-03-14T01:37:59;9.00;99.90
21563;DHT22;10942;47.894;11.424;2023-03-14T01:40:25;9.10;99.90
21563;DHT22;10942;47.894;11.424;2023-03-14T01:42:55;9.00;99.90
21563;DHT22;10942;47.894;11.424;2023-03-14T01:48:26;9.00;99.90
21563;DHT22;10942;47.894;11.424;2023-03-14T01:50:52;9.10;99.90
21563;DHT22;10942;47.894;11.424;2023-03-14T01:53:18;9.10;99.90
21563;DHT22;10942;47.894;11.424;2023-03-14T01:55:50;9.10;99.90
21563;DHT22;10942;47.894;11.424;2023-03-14T01:58:18;9.10;99.90
21563;DHT22;10942;47.894;11.424;2023-03-14T02:00:46;9.10;99.90
21563;DHT22;10942;47.894;11.424;2023-03-14T02:03:16;9.20;99.90
21563;DHT22;10942;47.894;11.424;2023-03-14T02:05:44;9.20;99.90
21563;DHT22;10942;47.894;11.424;2023-03-14T02:08:15;9.20;99.90
21563;DHT22;10942;47.894;11.424;2023-03-14T02:10:49;9.20;99.90
21563;DHT22;10942;47.894;11.424;2023-03-14T02:13:20;9.20;99.90
21563;DHT22;10942;47.894;11.424;2023-03-14T02:16:05;9.20;99.90
21563;DHT22;10942;47.894;11.424;2023-03-14T02:18:38;9.20;99.90
21563;DHT22;10942;47.894;11.424;2023-03-14T02:27:08;9.00;99.90
21563;DHT22;10942;47.894;11.424;2023-03-14T02:29:41;9.00;99.90
21563;DHT22;10942;47.894;11.424;2023-03-14T02:32:10;8.90;99.90
21563;DHT22;10942;47.894;11.424;2023-03-14T02:34:41;8.90;99.90
21563;DHT22;10942;47.894;11.424;2023-03-14T02:37:09;8.90;99.90
21563;DHT22;10942;47.894;11.424;2023-03-14T02:39:39;8.90;99.90
21563;DHT22;10942;47.894;11.424;2023-03-14T02:42:06;8.90;99.90
21563;DHT22;10942;47.894;11.424;2023-03-14T02:44:32;8.90;99.90
21563;DHT22;10942;47.894;11.424;2023-03-14T02:46:59;8.90;99.90
21563;DHT22;10942;47.894;11.424;2023-03-14T02:49:27;8.90;99.90
21563;DHT22;10942;47.894;11.424;2023-03-14T02:51:56;8.90;99.90
21563;DHT22;10942;47.894;11.424;2023-03-14T02:54:22;8.90;99.90
21563;DHT22;10942;47.894;11.424;2023-03-14T02:56:49;8.90;99.90
21563;DHT22;10942;47.894;11.424;2023-03-14T02:59:15;8.80;99.90
21563;DHT22;10942;47.894;11.424;2023-03-14T03:01:45;8.80;99.90
21563;DHT22;10942;47.894;11.424;2023-03-14T03:04:10;8.70;99.90
21563;DHT22;10942;47.894;11.424;2023-03-14T03:06:36;8.50;99.90
21563;DHT22;10942;47.894;11.424;2023-03-14T03:09:02;8.40;99.90
21563;DHT22;10942;47.894;11.424;2023-03-14T03:11:28;8.30;99.90
21563;DHT22;10942;47.894;11.424;2023-03-14T03:13:54;8.30;99.90
21563;DHT22;10942;47.894;11.424;2023-03-14T03:16:20;8.30;99.90
21563;DHT22;10942;47.894;11.424;2023-03-14T03:18:46;8.20;99.90
21563;DHT22;10942;47.894;11.424;2023-03-14T03:21:12;8.20;99.90
21563;DHT22;10942;47.894;11.424;2023-03-14T03:23:37;8.10;99.90
21563;DHT22;10942;47.894;11.424;2023-03-14T03:26:05;8.00;99.90
21563;DHT22;10942;47.894;11.424;2023-03-14T03:28:31;8.00;99.90
21563;DHT22;10942;47.894;11.424;2023-03-14T03:30:58;8.10;99.90
21563;DHT22;10942;47.894;11.424;2023-03-14T03:33:24;8.10;99.90
21563;DHT22;10942;47.894;11.424;2023-03-14T03:35:50;8.10;99.90
21563;DHT22;10942;47.894;11.424;2023-03-14T03:38:23;8.10;99.90
21563;DHT22;10942;47.894;11.424;2023-03-14T03:40:52;8.10;99.90
21563;DHT22;10942;47.894;11.424;2023-03-14T03:43:18;8.10;99.90
21563;DHT22;10942;47.894;11.424;2023-03-14T03:45:46;8.10;99.90
21563;DHT22;10942;47.894;11.424;2023-03-14T03:48:12;8.00;99.90
21563;DHT22;10942;47.894;11.424;2023-03-14T03:50:44;8.00;99.90
21563;DHT22;10942;47.894;11.424;2023-03-14T03:53:10;8.00;99.90
21563;DHT22;10942;47.894;11.424;2023-03-14T03:55:35;7.90;99.90
21563;DHT22;10942;47.894;11.424;2023-03-14T03:58:01;7.80;99.90
21563;DHT22;10942;47.894;11.424;2023-03-14T04:00:27;7.70;99.90
21563;DHT22;10942;47.894;11.424;2023-03-14T04:02:52;7.70;99.90
21563;DHT22;10942;47.894;11.424;2023-03-14T04:05:18;7.80;99.90
21563;DHT22;10942;47.894;11.424;2023-03-14T04:07:51;7.80;99.90
21563;DHT22;10942;47.894;11.424;2023-03-14T04:10:22;7.80;99.90
21563;DHT22;10942;47.894;11.424;2023-03-14T04:13:02;7.80;99.90
21563;DHT22;10942;47.894;11.424;2023-03-14T04:15:30;7.90;99.90
21563;DHT22;10942;47.894;11.424;2023-03-14T04:17:59;7.90;99.90
21563;DHT22;10942;47.894;11.424;2023-03-14T04:20:25;7.90;99.90
21563;DHT22;10942;47.894;11.424;2023-03-14T04:22:51;7.90;99.90
21563;DHT22;10942;47.894;11.424;2023-03-14T04:25:17;7.90;99.90
21563;DHT22;10942;47.894;11.424;2023-03-14T04:27:49;7.90;99.90
21563;DHT22;10942;47.894;11.424;2023-03-14T04:30:20;8.00;99.90
21563;DHT22;10942;47.894;11.424;2023-03-14T04:33:06;7.90;99.90
21563;DHT22;10942;47.894;11.424;2023-03-14T04:35:36;8.00;99.90
21563;DHT22;10942;47.894;11.424;2023-03-14T04:38:07;8.00;99.90
21563;DHT22;10942;47.894;11.424;2023-03-14T04:40:40;8.00;99.90
21563;DHT22;10942;47.894;11.424;2023-03-14T04:43:08;8.00;99.90
21563;DHT22;10942;47.894;11.424;2023-03-14T04:45:35;8.00;99.90
21563;DHT22;10942;47.894;11.424;2023-03-14T04:48:04;7.90;99.90
21563;DHT22;10942;47.894;11.424;2023-03-14T04:50:31;7.90;99.90
21563;DHT22;10942;47.894;11.424;2023-03-14T04:52:56;8.00;99.90
21563;DHT22;10942;47.894;11.424;2023-03-14T04:55:23;7.90;99.90
21563;DHT22;10942;47.894;11.424;2023-03-14T04:57:48;8.00;99.90
21563;DHT22;10942;47.894;11.424;2023-03-14T05:00:14;8.00;99.90
21563;DHT22;10942;47.894;11.424;2023-03-14T05:02:52;8.00;99.90
21563;DHT22;10942;47.894;11.424;2023-03-14T05:05:27;8.00;99.90
21563;DHT22;10942;47.894;11.424;2023-03-14T05:08:11;7.90;99.90
21563;DHT22;10942;47.894;11.424;2023-03-14T05:11:00;7.90;99.90
21563;DHT22;10942;47.894;11.424;2023-03-14T05:13:36;7.80;99.90
21563;DHT22;10942;47.894;11.424;2023-03-14T05:16:20;7.80;99.90
21563;DHT22;10942;47.894;11.424;2023-03-14T05:18:51;7.80;99.90
21563;DHT22;10942;47.894;11.424;2023-03-14T05:21:35;7.80;99.90
21563;DHT22;10942;47.894;11.424;2023-03-14T05:24:17;7.80;99.90
21563;DHT22;10942;47.894;11.424;2023-03-14T05:26:45;7.80;99.90
21563;DHT22;10942;47.894;11.424;2023-03-14T05:29:20;7.80;99.90
21563;DHT22;10942;47.894;11.424;2023-03-14T05:32:04;7.70;99.90
21563;DHT22;10942;47.894;11.424;2023-03-14T05:34:48;7.70;99.90
21563;DHT22;10942;47.894;11.424;2023-03-14T05:37:31;7.70;99.90
21563;DHT22;10942;47.894;11.424;2023-03-14T05:40:15;7.70;99.90
21563;DHT22;10942;47.894;11.424;2023-03-14T05:42:54;7.70;99.90
21563;DHT22;10942;47.894;11.424;2023-03-14T05:45:36;7.70;99.90
21563;DHT22;10942;47.894;11.424;2023-03-14T05:48:22;7.80;99.90
21563;DHT22;10942;47.894;11.424;2023-03-14T05:51:11;7.70;99.90
21563;DHT22;10942;47.894;11.424;2023-03-14T05:53:42;7.70;99.90
21563;DHT22;10942;47.894;11.424;2023-03-14T05:56:16;7.70;99.90
21563;DHT22;10942;47.894;11.424;2023-03-14T05:58:54;7.70;99.90
21563;DHT22;10942;47.894;11.424;2023-03-14T06:01:37;7.70;99.90
21563;DHT22;10942;47.894;11.424;2023-03-14T06:04:23;7.70;99.90
21563;DHT22;10942;47.894;11.424;2023-03-14T06:06:54;7.70;99.90
21563;DHT22;10942;47.894;11.424;2023-03-14T06:09:20;7.80;99.90
21563;DHT22;10942;47.894;11.424;2023-03-14T06:11:48;7.80;99.90
21563;DHT22;10942;47.894;11.424;2023-03-14T06:14:14;7.80;99.90
21563;DHT22;10942;47.894;11.424;2023-03-14T06:16:43;7.80;99.90
21563;DHT22;10942;47.894;11.424;2023-03-14T06:19:10;7.70;99.90
21563;DHT22;10942;47.894;11.424;2023-03-14T06:21:37;7.60;99.90
21563;DHT22;10942;47.894;11.424;2023-03-14T06:24:03;7.70;99.90
21563;DHT22;10942;47.894;11.424;2023-03-14T06:26:32;7.70;99.90
21563;DHT22;10942;47.894;11.424;2023-03-14T06:28:58;7.70;99.90
21563;DHT22;10942;47.894;11.424;2023-03-14T06:31:30;7.70;99.90
21563;DHT22;10942;47.894;11.424;2023-03-14T06:33:59;7.70;99.90
21563;DHT22;10942;47.894;11.424;2023-03-14T06:36:29;7.80;99.90
21563;DHT22;10942;47.894;11.424;2023-03-14T06:38:56;7.80;99.90
21563;DHT22;10942;47.894;11.424;2023-03-14T06:41:22;7.80;99.90
21563;DHT22;10942;47.894;11.424;2023-03-14T06:43:51;7.80;99.90
21563;DHT22;10942;47.894;11.424;2023-03-14T06:46:18;7.90;99.90
21563;DHT22;10942;47.894;11.424;2023-03-14T06:48:44;7.90;99.90
21563;DHT22;10942;47.894;11.424;2023-03-14T06:51:10;7.90;99.90
21563;DHT22;10942;47.894;11.424;2023-03-14T06:53:36;7.90;99.90
21563;DHT22;10942;47.894;11.424;2023-03-14T06:56:03;8.00;99.90
21563;DHT22;10942;47.894;11.424;2023-03-14T06:58:31;8.00;99.90
21563;DHT22;10942;47.894;11.424;2023-03-14T07:00:57;8.10;99.90
21563;DHT22;10942;47.894;11.424;2023-03-14T07:03:27;8.10;99.90
21563;DHT22;10942;47.894;11.424;2023-03-14T07:05:55;8.10;99.90
21563;DHT22;10942;47.894;11.424;2023-03-14T07:08:20;8.00;99.90
21563;DHT22;10942;47.894;11.424;2023-03-14T07:10:46;8.10;99.90
21563;DHT22;10942;47.894;11.424;2023-03-14T07:13:12;8.00;99.90
21563;DHT22;10942;47.894;11.424;2023-03-14T07:15:49;8.00;99.90
21563;DHT22;10942;47.894;11.424;2023-03-14T07:18:15;7.80;99.90
21563;DHT22;10942;47.894;11.424;2023-03-14T07:20:40;7.90;99.90
21563;DHT22;10942;47.894;11.424;2023-03-14T07:23:07;7.90;99.90
21563;DHT22;10942;47.894;11.424;2023-03-14T07:25:40;8.00;99.90
21563;DHT22;10942;47.894;11.424;2023-03-14T07:28:06;8.00;99.90
21563;DHT22;10942;47.894;11.424;2023-03-14T07:30:33;8.10;99.90
21563;DHT22;10942;47.894;11.424;2023-03-14T07:33:01;8.10;99.90
21563;DHT22;10942;47.894;11.424;2023-03-14T07:35:27;8.10;99.90
21563;DHT22;10942;47.894;11.424;2023-03-14T07:37:53;8.10;99.90
21563;DHT22;10942;47.894;11.424;2023-03-14T07:40:26;8.20;99.90
21563;DHT22;10942;47.894;11.424;2023-03-14T07:42:52;8.30;99.90
21563;DHT22;10942;47.894;11.424;2023-03-14T07:45:26;8.20;99.90
21563;DHT22;10942;47.894;11.424;2023-03-14T07:47:52;8.30;99.90
21563;DHT22;10942;47.894;11.424;2023-03-14T07:50:18;8.30;99.90
21563;DHT22;10942;47.894;11.424;2023-03-14T07:52:44;8.30;99.90
21563;DHT22;10942;47.894;11.424;2023-03-14T07:55:10;8.40;99.90
21563;DHT22;10942;47.894;11.424;2023-03-14T07:57:38;8.20;99.90
21563;DHT22;10942;47.894;11.424;2023-03-14T08:00:04;8.30;99.90
21563;DHT22;10942;47.894;11.424;2023-03-14T08:02:38;8.40;99.90
21563;DHT22;10942;47.894;11.424;2023-03-14T08:05:04;8.40;99.90
21563;DHT22;10942;47.894;11.424;2023-03-14T08:07:30;8.40;99.90
21563;DHT22;10942;47.894;11.424;2023-03-14T08:09:56;8.50;99.90
21563;DHT22;10942;47.894;11.424;2023-03-14T08:12:21;8.50;99.90
21563;DHT22;10942;47.894;11.424;2023-03-14T08:14:47;8.60;99.90
21563;DHT22;10942;47.894;11.424;2023-03-14T08:17:13;8.70;99.90
21563;DHT22;10942;47.894;11.424;2023-03-14T08:19:38;8.70;99.90
21563;DHT22;10942;47.894;11.424;2023-03-14T08:22:06;8.70;99.90
21563;DHT22;10942;47.894;11.424;2023-03-14T08:24:31;8.70;99.90
21563;DHT22;10942;47.894;11.424;2023-03-14T08:26:57;8.70;99.90
21563;DHT22;10942;47.894;11.424;2023-03-14T08:29:23;8.50;99.90
21563;DHT22;10942;47.894;11.424;2023-03-14T08:31:48;8.40;99.90
21563;DHT22;10942;47.894;11.424;2023-03-14T08:34:15;8.50;99.90
21563;DHT22;10942;47.894;11.424;2023-03-14T08:36:41;8.40;99.90
21563;DHT22;10942;47.894;11.424;2023-03-14T08:39:06;8.40;99.90
21563;DHT22;10942;47.894;11.424;2023-03-14T08:41:33;8.40;99.90
21563;DHT22;10942;47.894;11.424;2023-03-14T08:43:58;8.30;99.90
21563;DHT22;10942;47.894;11.424;2023-03-14T08:46:24;8.40;99.90
21563;DHT22;10942;47.894;11.424;2023-03-14T08:48:50;8.40;99.90
21563;DHT22;10942;47.894;11.424;2023-03-14T08:51:16;8.40;99.90
21563;DHT22;10942;47.894;11.424;2023-03-14T08:53:42;8.40;99.90
21563;DHT22;10942;47.894;11.424;2023-03-14T08:56:09;8.40;99.90
21563;DHT22;10942;47.894;11.424;2023-03-14T08:58:36;8.40;99.90
21563;DHT22;10942;47.894;11.424;2023-03-14T09:01:08;8.50;99.90
21563;DHT22;10942;47.894;11.424;2023-03-14T09:03:33;8.50;99.90
21563;DHT22;10942;47.894;11.424;2023-03-14T09:06:07;8.40;99.90
21563;DHT22;10942;47.894;11.424;2023-03-14T09:08:34;8.40;99.90
21563;DHT22;10942;47.894;11.424;2023-03-14T09:11:00;8.40;99.90
21563;DHT22;10942;47.894;11.424;2023-03-14T09:13:26;8.40;99.90
21563;DHT22;10942;47.894;11.424;2023-03-14T09:15:55;8.50;99.90
21563;DHT22;10942;47.894;11.424;2023-03-14T09:18:21;8.50;99.90
21563;DHT22;10942;47.894;11.424;2023-03-14T09:20:48;8.50;99.90
21563;DHT22;10942;47.894;11.424;2023-03-14T09:23:14;8.50;99.90
21563;DHT22;10942;47.894;11.424;2023-03-14T09:25:40;8.60;99.90
21563;DHT22;10942;47.894;11.424;2023-03-14T09:28:06;8.70;99.90
21563;DHT22;10942;47.894;11.424;2023-03-14T09:30:32;8.70;99.90
21563;DHT22;10942;47.894;11.424;2023-03-14T09:32:58;8.60;99.90
21563;DHT22;10942;47.894;11.424;2023-03-14T09:35:25;8.40;99.90
21563;DHT22;10942;47.894;11.424;2023-03-14T09:37:50;8.50;99.90
21563;DHT22;10942;47.894;11.424;2023-03-14T09:40:18;8.50;99.90
21563;DHT22;10942;47.894;11.424;2023-03-14T09:42:50;8.60;99.90
21563;DHT22;10942;47.894;11.424;2023-03-14T09:45:36;8.60;99.90
21563;DHT22;10942;47.894;11.424;2023-03-14T09:48:04;8.70;99.90
21563;DHT22;10942;47.894;11.424;2023-03-14T09:50:37;8.70;99.90
21563;DHT22;10942;47.894;11.424;2023-03-14T09:53:12;8.80;99.90
21563;DHT22;10942;47.894;11.424;2023-03-14T09:55:39;8.90;99.90
21563;DHT22;10942;47.894;11.424;2023-03-14T09:58:11;8.90;99.90
21563;DHT22;10942;47.894;11.424;2023-03-14T10:00:37;9.00;99.90
21563;DHT22;10942;47.894;11.424;2023-03-14T10:03:30;9.10;99.90
21563;DHT22;10942;47.894;11.424;2023-03-14T10:05:56;9.30;99.90
21563;DHT22;10942;47.894;11.424;2023-03-14T10:08:22;9.40;99.90
21563;DHT22;10942;47.894;11.424;2023-03-14T10:10:48;9.70;99.90
21563;DHT22;10942;47.894;11.424;2023-03-14T10:18:22;10.40;99.90
21563;DHT22;10942;47.894;11.424;2023-03-14T10:20:50;10.70;99.90
21563;DHT22;10942;47.894;11.424;2023-03-14T10:23:28;11.30;99.90
21563;DHT22;10942;47.894;11.424;2023-03-14T10:26:08;11.90;99.90
21563;DHT22;10942;47.894;11.424;2023-03-14T10:28:41;12.20;99.90
21563;DHT22;10942;47.894;11.424;2023-03-14T10:31:08;12.80;99.90
21563;DHT22;10942;47.894;11.424;2023-03-14T10:40:57;13.40;99.90
21563;DHT22;10942;47.894;11.424;2023-03-14T10:46:02;14.40;99.90
21563;DHT22;10942;47.894;11.424;2023-03-14T10:48:37;14.50;99.90
21563;DHT22;10942;47.894;11.424;2023-03-14T10:53:48;14.10;99.90
21563;DHT22;10942;47.894;11.424;2023-03-14T10:56:19;14.00;99.90
21563;DHT22;10942;47.894;11.424;2023-03-14T10:58:48;14.00;99.90
21563;DHT22;10942;47.894;11.424;2023-03-14T11:07:10;13.60;99.90
21563;DHT22;10942;47.894;11.424;2023-03-14T11:15:18;14.10;99.90
21563;DHT22;10942;47.894;11.424;2023-03-14T11:20:35;14.00;99.90
21563;DHT22;10942;47.894;11.424;2023-03-14T11:23:13;13.90;99.90
21563;DHT22;10942;47.894;11.424;2023-03-14T11:28:38;13.40;99.90
21563;DHT22;10942;47.894;11.424;2023-03-14T11:31:23;13.40;99.90
21563;DHT22;10942;47.894;11.424;2023-03-14T11:39:02;13.70;99.90
21563;DHT22;10942;47.894;11.424;2023-03-14T11:41:39;13.90;99.90
21563;DHT22;10942;47.894;11.424;2023-03-14T11:46:50;14.00;99.90
21563;DHT22;10942;47.894;11.424;2023-03-14T11:49:32;13.90;99.90
21563;DHT22;10942;47.894;11.424;2023-03-14T11:52:03;14.10;99.90
21563;DHT22;10942;47.894;11.424;2023-03-14T11:54:52;14.10;99.90
21563;DHT22;10942;47.894;11.424;2023-03-14T11:57:20;14.00;99.90
21563;DHT22;10942;47.894;11.424;2023-03-14T11:59:49;13.80;99.90
21563;DHT22;10942;47.894;11.424;2023-03-14T12:10:30;13.50;99.90
21563;DHT22;10942;47.894;11.424;2023-03-14T12:13:01;13.40;99.90
21563;DHT22;10942;47.894;11.424;2023-03-14T12:15:27;13.40;99.90
21563;DHT22;10942;47.894;11.424;2023-03-14T12:17:56;13.40;99.90
21563;DHT22;10942;47.894;11.424;2023-03-14T12:20:23;13.20;99.90
21563;DHT22;10942;47.894;11.424;2023-03-14T12:25:22;13.10;99.90
21563;DHT22;10942;47.894;11.424;2023-03-14T12:30:33;12.60;99.90
21563;DHT22;10942;47.894;11.424;2023-03-14T12:35:41;12.50;99.90
21563;DHT22;10942;47.894;11.424;2023-03-14T12:38:14;12.30;99.90
21563;DHT22;10942;47.894;11.424;2023-03-14T12:41:05;12.30;99.90
21563;DHT22;10942;47.894;11.424;2023-03-14T12:43:33;12.20;99.90
21563;DHT22;10942;47.894;11.424;2023-03-14T12:51:26;12.10;99.90
21563;DHT22;10942;47.894;11.424;2023-03-14T12:54:06;12.00;99.90
21563;DHT22;10942;47.894;11.424;2023-03-14T13:04:47;11.80;99.90
21563;DHT22;10942;47.894;11.424;2023-03-14T13:07:35;11.80;99.90
21563;DHT22;10942;47.894;11.424;2023-03-14T13:15:19;11.80;99.90
21563;DHT22;10942;47.894;11.424;2023-03-14T13:17:47;11.80;99.90
21563;DHT22;10942;47.894;11.424;2023-03-14T13:20:30;11.60;99.90
21563;DHT22;10942;47.894;11.424;2023-03-14T13:22:57;11.60;99.90
21563;DHT22;10942;47.894;11.424;2023-03-14T13:25:23;11.70;99.90
21563;DHT22;10942;47.894;11.424;2023-03-14T13:27:52;11.70;99.90
21563;DHT22;10942;47.894;11.424;2023-03-14T13:30:35;11.50;99.90
21563;DHT22;10942;47.894;11.424;2023-03-14T13:33:04;11.40;99.90
21563;DHT22;10942;47.894;11.424;2023-03-14T13:36:21;11.10;99.90
21563;DHT22;10942;47.894;11.424;2023-03-14T13:38:32;10.80;99.90
21563;DHT22;10942;47.894;11.424;2023-03-14T13:40:59;10.30;99.90
21563;DHT22;10942;47.894;11.424;2023-03-14T13:43:41;10.20;99.90
21563;DHT22;10942;47.894;11.424;2023-03-14T13:46:23;10.00;99.90
21563;DHT22;10942;47.894;11.424;2023-03-14T13:48:57;9.70;99.90
21563;DHT22;10942;47.894;11.424;2023-03-14T13:51:24;9.60;99.90
21563;DHT22;10942;47.894;11.424;2023-03-14T13:53:54;9.70;99.90
21563;DHT22;10942;47.894;11.424;2023-03-14T13:56:22;9.50;99.90
21563;DHT22;10942;47.894;11.424;2023-03-14T13:58:49;9.50;99.90
21563;DHT22;10942;47.894;11.424;2023-03-14T14:03:51;9.70;99.90
21563;DHT22;10942;47.894;11.424;2023-03-14T14:06:23;9.70;99.90
21563;DHT22;10942;47.894;11.424;2023-03-14T14:08:52;9.70;99.90
21563;DHT22;10942;47.894;11.424;2023-03-14T14:11:55;9.60;99.90
21563;DHT22;10942;47.894;11.424;2023-03-14T14:16:55;9.10;99.90
21563;DHT22;10942;47.894;11.424;2023-03-14T14:19:23;9.10;99.90
21563;DHT22;10942;47.894;11.424;2023-03-14T14:21:49;9.00;99.90
21563;DHT22;10942;47.894;11.424;2023-03-14T14:24:15;8.80;99.90
21563;DHT22;10942;47.894;11.424;2023-03-14T14:26:50;8.60;99.90
21563;DHT22;10942;47.894;11.424;2023-03-14T14:29:29;8.40;99.90
21563;DHT22;10942;47.894;11.424;2023-03-14T14:35:06;8.20;99.90
21563;DHT22;10942;47.894;11.424;2023-03-14T14:37:41;8.00;99.90
21563;DHT22;10942;47.894;11.424;2023-03-14T14:40:19;7.70;99.90
21563;DHT22;10942;47.894;11.424;2023-03-14T14:42:46;7.60;99.90
21563;DHT22;10942;47.894;11.424;2023-03-14T14:45:23;7.60;99.90
21563;DHT22;10942;47.894;11.424;2023-03-14T14:47:54;7.50;99.90
21563;DHT22;10942;47.894;11.424;2023-03-14T14:50:37;7.60;99.90
21563;DHT22;10942;47.894;11.424;2023-03-14T14:53:25;7.50;99.90
21563;DHT22;10942;47.894;11.424;2023-03-14T14:55:54;7.50;99.90
21563;DHT22;10942;47.894;11.424;2023-03-14T14:58:36;7.40;99.90
21563;DHT22;10942;47.894;11.424;2023-03-14T15:01:10;7.40;99.90
21563;DHT22;10942;47.894;11.424;2023-03-14T15:03:37;7.40;99.90
21563;DHT22;10942;47.894;11.424;2023-03-14T15:06:03;7.40;99.90
21563;DHT22;10942;47.894;11.424;2023-03-14T15:08:30;7.40;99.90
21563;DHT22;10942;47.894;11.424;2023-03-14T15:10:56;7.40;99.90
21563;DHT22;10942;47.894;11.424;2023-03-14T15:13:22;7.40;99.90
21563;DHT22;10942;47.894;11.424;2023-03-14T15:15:50;7.50;99.90
21563;DHT22;10942;47.894;11.424;2023-03-14T15:18:25;7.50;99.90
21563;DHT22;10942;47.894;11.424;2023-03-14T15:20:53;7.30;99.90
21563;DHT22;10942;47.894;11.424;2023-03-14T15:23:20;7.40;99.90
21563;DHT22;10942;47.894;11.424;2023-03-14T15:25:46;7.30;99.90
21563;DHT22;10942;47.894;11.424;2023-03-14T15:28:24;7.20;99.90
21563;DHT22;10942;47.894;11.424;2023-03-14T15:30:52;7.20;99.90
21563;DHT22;10942;47.894;11.424;2023-03-14T15:33:18;7.20;99.90
21563;DHT22;10942;47.894;11.424;2023-03-14T15:35:45;7.20;99.90
21563;DHT22;10942;47.894;11.424;2023-03-14T15:43:04;6.60;99.90
21563;DHT22;10942;47.894;11.424;2023-03-14T15:52:51;6.30;99.90
21563;DHT22;10942;47.894;11.424;2023-03-14T15:55:17;6.30;99.90
21563;DHT22;10942;47.894;11.424;2023-03-14T15:57:43;6.30;99.90
21563;DHT22;10942;47.894;11.424;2023-03-14T16:00:17;6.30;99.90
21563;DHT22;10942;47.894;11.424;2023-03-14T16:02:43;6.30;99.90
21563;DHT22;10942;47.894;11.424;2023-03-14T16:05:11;6.40;99.90
21563;DHT22;10942;47.894;11.424;2023-03-14T16:07:38;6.40;99.90
21563;DHT22;10942;47.894;11.424;2023-03-14T16:10:05;6.30;99.90
21563;DHT22;10942;47.894;11.424;2023-03-14T16:12:31;6.30;99.90
21563;DHT22;10942;47.894;11.424;2023-03-14T16:14:57;6.30;99.90
21563;DHT22;10942;47.894;11.424;2023-03-14T16:17:23;6.20;99.90
21563;DHT22;10942;47.894;11.424;2023-03-14T16:19:49;6.30;99.90
21563;DHT22;10942;47.894;11.424;2023-03-14T16:22:14;6.30;99.90
21563;DHT22;10942;47.894;11.424;2023-03-14T16:24:40;6.30;99.90
21563;DHT22;10942;47.894;11.424;2023-03-14T16:27:06;6.30;99.90
21563;DHT22;10942;47.894;11.424;2023-03-14T16:29:32;6.40;99.90
21563;DHT22;10942;47.894;11.424;2023-03-14T16:31:57;6.40;99.90
21563;DHT22;10942;47.894;11.424;2023-03-14T16:34:23;6.40;99.90
21563;DHT22;10942;47.894;11.424;2023-03-14T16:36:49;6.50;99.90
21563;DHT22;10942;47.894;11.424;2023-03-14T16:39:17;6.50;99.90
21563;DHT22;10942;47.894;11.424;2023-03-14T16:41:43;6.50;99.90
21563;DHT22;10942;47.894;11.424;2023-03-14T16:44:09;6.50;99.90
21563;DHT22;10942;47.894;11.424;2023-03-14T16:46:35;6.40;99.90
21563;DHT22;10942;47.894;11.424;2023-03-14T16:49:03;6.40;99.90
21563;DHT22;10942;47.894;11.424;2023-03-14T16:51:29;6.30;99.90
21563;DHT22;10942;47.894;11.424;2023-03-14T16:53:55;6.30;99.90
21563;DHT22;10942;47.894;11.424;2023-03-14T16:56:21;6.40;99.90
21563;DHT22;10942;47.894;11.424;2023-03-14T16:58:48;6.40;99.90
21563;DHT22;10942;47.894;11.424;2023-03-14T17:01:15;6.30;99.90
21563;DHT22;10942;47.894;11.424;2023-03-14T17:03:45;6.20;99.90
21563;DHT22;10942;47.894;11.424;2023-03-14T17:06:13;6.10;99.90
21563;DHT22;10942;47.894;11.424;2023-03-14T17:08:39;6.00;99.90
21563;DHT22;10942;47.894;11.424;2023-03-14T17:11:04;5.90;99.90
21563;DHT22;10942;47.894;11.424;2023-03-14T17:13:30;5.90;99.90
21563;DHT22;10942;47.894;11.424;2023-03-14T17:15:58;5.80;99.90
21563;DHT22;10942;47.894;11.424;2023-03-14T17:18:25;5.80;99.90
21563;DHT22;10942;47.894;11.424;2023-03-14T17:20:52;5.70;99.90
21563;DHT22;10942;47.894;11.424;2023-03-14T17:23:18;5.80;99.90
21563;DHT22;10942;47.894;11.424;2023-03-14T17:25:48;5.80;99.90
21563;DHT22;10942;47.894;11.424;2023-03-14T17:28:19;5.80;99.90
21563;DHT22;10942;47.894;11.424;2023-03-14T17:30:46;5.80;99.90